Time;durP1;ratioP1;P1;durP2;ratioP2;P2;SDS_P1;SDS_P2;PMS_P1;PMS_P2;Temp;Humidity;BMP_temperature;BMP_pressure;BME280_temperature;BME280_humidity;BME280_pressure;Samples;Min_cycle;Max_cycle;Signal;HPM_P1;HPM_P2
2021/08/31 00:02:22;;;;;;;;;23.50;23.50;;;;;;;;6341115;22;45282;-74
2021/08/31 00:04:49;;;;;;;;;20.00;20.00;;;;;;;;6341017;22;45204;-74
2021/08/31 00:07:14;;;;;;;;;26.33;24.67;;;;;;;;6340404;22;45291;-74
2021/08/31 00:09:40;;;;;;;;;24.33;24.33;;;;;;;;6340468;22;45310;-74
2021/08/31 00:12:05;;;;;;;;;24.00;22.00;;;;;;;;6341043;22;45346;-76
2021/08/31 00:14:30;;;;;;;;;27.33;26.00;;;;;;;;6340612;22;45260;-76
2021/08/31 00:16:59;;;;;;;;;26.67;24.00;;;;;;;;6312029;22;47444;-75
2021/08/31 00:19:24;;;;;;;;;21.67;20.67;;;;;;;;6340750;22;45144;-76
2021/08/31 00:21:49;;;;;;;;;22.00;20.00;;;;;;;;6340578;22;45516;-76
2021/08/31 00:24:15;;;;;;;;;25.00;21.33;;;;;;;;6340766;22;45214;-74
2021/08/31 00:26:40;;;;;;;;;28.33;25.33;;;;;;;;6312447;22;47021;-74
2021/08/31 00:29:05;;;;;;;;;21.00;20.00;;;;;;;;6340979;22;45226;-75
2021/08/31 00:31:32;;;;;;;;;27.00;24.67;;;;;;;;6340200;22;45203;-74
2021/08/31 00:33:57;;;;;;;;;21.67;21.67;;;;;;;;6340642;22;45147;-74
2021/08/31 00:36:22;;;;;;;;;24.00;23.00;;;;;;;;6340597;22;45310;-74
2021/08/31 00:38:47;;;;;;;;;24.67;23.00;;;;;;;;6340728;22;45164;-74
2021/08/31 00:41:12;;;;;;;;;24.33;24.00;;;;;;;;6341020;22;45239;-74
2021/08/31 00:43:47;;;;;;;;;24.00;22.00;;;;;;;;6340503;22;45203;-76
2021/08/31 00:46:13;;;;;;;;;21.33;21.33;;;;;;;;6340124;22;45329;-76
2021/08/31 00:48:39;;;;;;;;;24.33;23.00;;;;;;;;6340363;22;45230;-75
2021/08/31 00:51:04;;;;;;;;;23.00;23.00;;;;;;;;6340715;22;45303;-75
2021/08/31 00:53:33;;;;;;;;;22.67;22.67;;;;;;;;6340417;22;45365;-75
2021/08/31 00:55:58;;;;;;;;;22.00;22.00;;;;;;;;6340339;22;45652;-74
2021/08/31 00:58:23;;;;;;;;;24.67;23.00;;;;;;;;6340194;22;45350;-74
2021/08/31 01:00:48;;;;;;;;;21.33;20.00;;;;;;;;6340613;22;45319;-73
2021/08/31 01:03:16;;;;;;;;;24.33;24.33;;;;;;;;6340755;22;45289;-73
2021/08/31 01:05:41;;;;;;;;;28.00;26.33;;;;;;;;6340188;22;46270;-74
2021/08/31 01:08:07;;;;;;;;;26.33;25.00;;;;;;;;6311867;22;45925;-73
2021/08/31 01:10:32;;;;;;;;;21.33;21.33;;;;;;;;6340504;22;45140;-74
2021/08/31 01:12:57;;;;;;;;;24.33;22.33;;;;;;;;6311765;22;47128;-76
2021/08/31 01:15:25;;;;;;;;;22.33;22.00;;;;;;;;6311917;22;46079;-75
2021/08/31 01:17:50;;;;;;;;;23.33;21.67;;;;;;;;6311465;22;45198;-76
2021/08/31 01:20:16;;;;;;;;;23.33;20.00;;;;;;;;6312191;22;45274;-75
2021/08/31 01:22:41;;;;;;;;;18.67;18.00;;;;;;;;6313078;22;45773;-74
2021/08/31 01:25:07;;;;;;;;;19.33;17.67;;;;;;;;6341494;22;46287;-74
2021/08/31 01:27:33;;;;;;;;;19.67;18.33;;;;;;;;6341863;22;45262;-74
2021/08/31 01:29:59;;;;;;;;;20.33;17.33;;;;;;;;6341432;22;45250;-74
2021/08/31 01:32:24;;;;;;;;;20.67;19.33;;;;;;;;6341670;22;45496;-74
2021/08/31 01:34:50;;;;;;;;;18.33;18.33;;;;;;;;6313030;22;48128;-74
2021/08/31 01:37:17;;;;;;;;;16.33;16.33;;;;;;;;6341735;22;45172;-74
2021/08/31 01:39:42;;;;;;;;;19.00;17.00;;;;;;;;6313368;22;45218;-76
2021/08/31 01:42:08;;;;;;;;;17.00;16.00;;;;;;;;6341455;22;45428;-75
2021/08/31 01:44:33;;;;;;;;;18.00;17.33;;;;;;;;6341438;22;45965;-75
2021/08/31 01:46:58;;;;;;;;;18.00;16.67;;;;;;;;6313060;22;45931;-75
2021/08/31 01:49:23;;;;;;;;;18.33;16.67;;;;;;;;6341814;22;45196;-76
2021/08/31 01:51:49;;;;;;;;;13.33;12.67;;;;;;;;6341603;22;45308;-74
2021/08/31 01:54:14;;;;;;;;;15.67;15.67;;;;;;;;6313368;22;47529;-73
2021/08/31 01:56:39;;;;;;;;;14.67;14.33;;;;;;;;6341241;22;45312;-74
2021/08/31 01:59:08;;;;;;;;;19.00;19.00;;;;;;;;6341644;22;45384;-74
2021/08/31 02:01:33;;;;;;;;;15.33;15.33;;;;;;;;6341517;22;45269;-74
2021/08/31 02:03:58;;;;;;;;;19.00;18.50;;;;;;;;6341378;22;46119;-74
2021/08/31 02:06:23;;;;;;;;;17.67;16.00;;;;;;;;6313003;22;45238;-74
2021/08/31 02:08:49;;;;;;;;;15.00;15.00;;;;;;;;6313502;22;45219;-75
2021/08/31 02:11:14;;;;;;;;;15.00;14.67;;;;;;;;6341578;22;45266;-75
2021/08/31 02:13:40;;;;;;;;;13.33;12.33;;;;;;;;6341578;22;45213;-75
2021/08/31 02:16:05;;;;;;;;;13.33;13.00;;;;;;;;6341447;22;45262;-75
2021/08/31 02:18:30;;;;;;;;;16.00;15.67;;;;;;;;6341721;22;45322;-74
2021/08/31 02:20:55;;;;;;;;;18.67;18.67;;;;;;;;6341717;22;45207;-73
2021/08/31 02:23:21;;;;;;;;;18.67;16.33;;;;;;;;6313139;22;47345;-73
2021/08/31 02:25:46;;;;;;;;;13.33;13.33;;;;;;;;6312875;22;45249;-74
2021/08/31 02:28:11;;;;;;;;;17.00;15.67;;;;;;;;6341895;22;45629;-74
2021/08/31 02:30:36;;;;;;;;;15.67;15.00;;;;;;;;6340992;22;45376;-74
2021/08/31 02:33:02;;;;;;;;;14.00;13.67;;;;;;;;6341253;22;46382;-74
2021/08/31 02:35:31;;;;;;;;;15.00;15.00;;;;;;;;6340689;22;45266;-76
2021/08/31 02:37:56;;;;;;;;;17.33;17.00;;;;;;;;6312898;22;45256;-75
2021/08/31 02:40:21;;;;;;;;;14.33;13.33;;;;;;;;6312953;22;45472;-76
2021/08/31 02:42:46;;;;;;;;;18.33;17.33;;;;;;;;6340912;22;45287;-76
2021/08/31 02:45:12;;;;;;;;;16.67;15.67;;;;;;;;6340744;22;45416;-75
2021/08/31 02:47:38;;;;;;;;;19.00;17.33;;;;;;;;6341460;22;45147;-74
2021/08/31 02:50:04;;;;;;;;;15.67;14.67;;;;;;;;6341514;22;45246;-74
2021/08/31 02:52:29;;;;;;;;;15.00;14.00;;;;;;;;6340755;22;45250;-74
2021/08/31 02:54:54;;;;;;;;;18.67;18.67;;;;;;;;6341324;22;45166;-74
2021/08/31 02:57:20;;;;;;;;;13.00;13.00;;;;;;;;6341473;22;45195;-74
2021/08/31 02:59:45;;;;;;;;;15.33;14.67;;;;;;;;6341499;22;45929;-74
2021/08/31 03:02:10;;;;;;;;;16.00;16.00;;;;;;;;6341370;22;45214;-74
2021/08/31 03:04:42;;;;;;;;;20.00;16.67;;;;;;;;6340972;22;45171;-75
2021/08/31 03:07:09;;;;;;;;;21.67;19.33;;;;;;;;6340989;22;45180;-74
2021/08/31 03:09:34;;;;;;;;;19.33;18.00;;;;;;;;6341067;22;45172;-75
2021/08/31 03:11:59;;;;;;;;;20.67;17.67;;;;;;;;6313288;22;45317;-75
2021/08/31 03:14:25;;;;;;;;;18.00;16.33;;;;;;;;6341139;22;45191;-75
2021/08/31 03:16:50;;;;;;;;;18.00;15.33;;;;;;;;6341145;22;45493;-74
2021/08/31 03:19:24;;;;;;;;;16.33;14.33;;;;;;;;6340996;22;45217;-75
2021/08/31 03:21:50;;;;;;;;;23.33;22.67;;;;;;;;6340324;22;46987;-74
2021/08/31 03:24:16;;;;;;;;;20.00;18.33;;;;;;;;6312917;22;45600;-74
2021/08/31 03:26:42;;;;;;;;;15.33;15.33;;;;;;;;6341210;22;45156;-74
2021/08/31 03:29:07;;;;;;;;;15.00;15.00;;;;;;;;6341157;22;45406;-74
2021/08/31 03:31:32;;;;;;;;;19.33;18.33;;;;;;;;6340597;22;45302;-74
2021/08/31 03:33:57;;;;;;;;;22.00;22.00;;;;;;;;6312975;22;45673;-73
2021/08/31 03:36:22;;;;;;;;;21.67;18.33;;;;;;;;6341206;22;45322;-73
2021/08/31 03:38:48;;;;;;;;;18.00;16.33;;;;;;;;6340865;22;45223;-75
2021/08/31 03:41:13;;;;;;;;;23.00;20.67;;;;;;;;6340901;22;45345;-75
2021/08/31 03:43:39;;;;;;;;;15.00;14.33;;;;;;;;6340366;22;45228;-75
2021/08/31 03:46:04;;;;;;;;;21.00;19.67;;;;;;;;6340709;22;45341;-75
2021/08/31 03:48:30;;;;;;;;;20.00;20.00;;;;;;;;6312569;22;45303;-74
2021/08/31 03:50:55;;;;;;;;;18.67;18.00;;;;;;;;6340946;22;46251;-74
2021/08/31 03:53:20;;;;;;;;;19.67;19.67;;;;;;;;6312955;22;45315;-74
2021/08/31 03:55:45;;;;;;;;;18.33;17.67;;;;;;;;6312504;22;45299;-74
2021/08/31 03:58:13;;;;;;;;;21.00;17.33;;;;;;;;6340700;22;45231;-74
2021/08/31 04:00:38;;;;;;;;;19.33;19.33;;;;;;;;6340889;22;46041;-74
2021/08/31 04:03:03;;;;;;;;;18.67;17.00;;;;;;;;6341059;22;45180;-73
2021/08/31 04:05:29;;;;;;;;;22.67;21.00;;;;;;;;6341289;22;45330;-74
2021/08/31 04:07:54;;;;;;;;;18.67;18.67;;;;;;;;6312566;22;45990;-75
2021/08/31 04:10:20;;;;;;;;;23.00;20.33;;;;;;;;6312326;22;47254;-75
2021/08/31 04:12:45;;;;;;;;;19.67;19.67;;;;;;;;6312573;22;46157;-75
2021/08/31 04:15:10;;;;;;;;;20.00;20.00;;;;;;;;6341214;22;45165;-75
2021/08/31 04:17:36;;;;;;;;;20.67;20.33;;;;;;;;6340621;22;45407;-75
2021/08/31 04:20:01;;;;;;;;;21.00;21.00;;;;;;;;6340717;22;46395;-73
2021/08/31 04:22:26;;;;;;;;;22.33;22.00;;;;;;;;6340996;22;45238;-74
2021/08/31 04:24:51;;;;;;;;;22.33;22.33;;;;;;;;6341173;22;45165;-74
2021/08/31 04:27:16;;;;;;;;;22.33;22.33;;;;;;;;6312468;22;47078;-74
2021/08/31 04:29:45;;;;;;;;;23.33;23.00;;;;;;;;6311840;22;47216;-74
2021/08/31 04:32:10;;;;;;;;;19.67;19.67;;;;;;;;6340581;22;45195;-74
2021/08/31 04:34:38;;;;;;;;;27.00;25.00;;;;;;;;6340831;22;45207;-74
2021/08/31 04:37:03;;;;;;;;;24.00;22.00;;;;;;;;6312105;22;45387;-75
2021/08/31 04:39:28;;;;;;;;;25.33;22.67;;;;;;;;6340386;22;45388;-75
2021/08/31 04:41:53;;;;;;;;;26.33;26.33;;;;;;;;6340702;22;45226;-74
2021/08/31 04:44:19;;;;;;;;;21.67;21.33;;;;;;;;6340703;22;45357;-75
2021/08/31 04:46:44;;;;;;;;;23.00;20.67;;;;;;;;6340009;22;45303;-73
2021/08/31 04:49:09;;;;;;;;;20.67;18.33;;;;;;;;6340602;22;46430;-75
2021/08/31 04:51:34;;;;;;;;;21.67;20.67;;;;;;;;6312167;22;45212;-75
2021/08/31 04:53:59;;;;;;;;;22.00;22.00;;;;;;;;6340914;22;45156;-74
2021/08/31 04:56:25;;;;;;;;;22.00;20.33;;;;;;;;6341738;22;45135;-74
2021/08/31 04:58:52;;;;;;;;;20.00;19.67;;;;;;;;6341587;22;46093;-74
2021/08/31 05:01:17;;;;;;;;;20.33;18.33;;;;;;;;6341885;22;45200;-73
2021/08/31 05:03:45;;;;;;;;;23.00;23.00;;;;;;;;6341714;22;45167;-74
2021/08/31 05:06:12;;;;;;;;;25.33;24.00;;;;;;;;6313097;22;46276;-74
2021/08/31 05:08:38;;;;;;;;;23.33;21.00;;;;;;;;6341210;22;46302;-74
2021/08/31 05:11:03;;;;;;;;;21.00;21.00;;;;;;;;6341864;22;45156;-76
2021/08/31 05:13:34;;;;;;;;;24.67;24.33;;;;;;;;6313662;22;45344;-76
2021/08/31 05:15:59;;;;;;;;;25.00;22.33;;;;;;;;6341198;22;45891;-76
2021/08/31 05:18:24;;;;;;;;;21.00;19.67;;;;;;;;6341520;22;45565;-75
2021/08/31 05:20:50;;;;;;;;;20.67;20.33;;;;;;;;6341756;22;45235;-76
2021/08/31 05:23:15;;;;;;;;;27.33;24.33;;;;;;;;6313428;22;45310;-74
2021/08/31 05:25:40;;;;;;;;;22.67;21.67;;;;;;;;6341726;22;45234;-73
2021/08/31 05:28:05;;;;;;;;;21.00;20.33;;;;;;;;6313151;22;48547;-74
2021/08/31 05:30:33;;;;;;;;;22.67;21.67;;;;;;;;6341406;22;45294;-74
2021/08/31 05:32:58;;;;;;;;;21.33;21.00;;;;;;;;6342040;22;45351;-74
2021/08/31 05:35:23;;;;;;;;;21.00;20.67;;;;;;;;6341808;22;45239;-74
2021/08/31 05:37:48;;;;;;;;;27.00;24.67;;;;;;;;6313325;22;48161;-73
2021/08/31 05:40:13;;;;;;;;;19.00;18.33;;;;;;;;6341789;22;45153;-75
2021/08/31 05:42:39;;;;;;;;;19.67;18.33;;;;;;;;6313183;22;45259;-76
2021/08/31 05:45:04;;;;;;;;;23.00;21.67;;;;;;;;6313304;22;45449;-75
2021/08/31 05:47:29;;;;;;;;;22.33;21.00;;;;;;;;6312819;22;47154;-74
2021/08/31 05:49:55;;;;;;;;;25.00;25.00;;;;;;;;6341721;22;45256;-75
2021/08/31 05:52:20;;;;;;;;;25.00;25.00;;;;;;;;6313410;22;45227;-73
2021/08/31 05:54:45;;;;;;;;;23.33;23.00;;;;;;;;6341731;22;45156;-73
2021/08/31 05:57:12;;;;;;;;;26.67;24.67;;;;;;;;6341274;22;45392;-74
2021/08/31 05:59:41;;;;;;;;;24.67;23.67;;;;;;;;6341348;22;45164;-76
2021/08/31 06:02:08;;;;;;;;;31.00;28.00;;;;;;;;6313225;22;45306;-75
2021/08/31 06:04:33;;;;;;;;;25.00;23.00;;;;;;;;6341475;22;45368;-75
2021/08/31 06:06:58;;;;;;;;;25.00;24.33;;;;;;;;6340923;22;45303;-76
2021/08/31 06:09:23;;;;;;;;;36.33;29.33;;;;;;;;6341685;22;45262;-75
2021/08/31 06:11:51;;;;;;;;;29.00;27.00;;;;;;;;6341773;22;45247;-75
2021/08/31 06:14:21;;;;;;;;;32.00;29.00;;;;;;;;6341545;22;45351;-74
2021/08/31 06:16:47;;;;;;;;;29.00;27.00;;;;;;;;6341285;22;46239;-74
2021/08/31 06:19:12;;;;;;;;;28.33;27.33;;;;;;;;6341044;22;45208;-74
2021/08/31 06:21:37;;;;;;;;;28.00;28.00;;;;;;;;6313456;22;45236;-74
2021/08/31 06:24:05;;;;;;;;;29.67;29.00;;;;;;;;6313849;22;45258;-74
2021/08/31 06:26:30;;;;;;;;;32.00;30.00;;;;;;;;6341345;22;45210;-75
2021/08/31 06:28:55;;;;;;;;;29.33;27.00;;;;;;;;6340534;22;45210;-73
2021/08/31 06:31:21;;;;;;;;;29.67;28.00;;;;;;;;6312347;22;45271;-74
2021/08/31 06:33:46;;;;;;;;;33.00;29.33;;;;;;;;6312621;22;45279;-74
2021/08/31 06:36:12;;;;;;;;;32.33;29.00;;;;;;;;6311959;22;46233;-75
2021/08/31 06:38:38;;;;;;;;;40.33;34.67;;;;;;;;6341115;22;45292;-75
2021/08/31 06:41:04;;;;;;;;;29.33;26.00;;;;;;;;6313028;22;45292;-73
2021/08/31 06:43:30;;;;;;;;;34.33;30.33;;;;;;;;6312437;22;46466;-74
2021/08/31 06:45:55;;;;;;;;;32.00;30.00;;;;;;;;6341009;22;45258;-74
2021/08/31 06:48:20;;;;;;;;;34.67;32.00;;;;;;;;6312978;22;45547;-75
2021/08/31 06:50:46;;;;;;;;;36.00;31.00;;;;;;;;6312859;22;45263;-76
2021/08/31 06:53:11;;;;;;;;;36.67;32.67;;;;;;;;6312761;22;45287;-75
2021/08/31 06:55:37;;;;;;;;;34.00;28.33;;;;;;;;6340795;22;45269;-72
2021/08/31 06:58:02;;;;;;;;;39.33;31.67;;;;;;;;6312464;22;45275;-74
2021/08/31 07:00:29;;;;;;;;;33.00;30.67;;;;;;;;6340772;22;45313;-73
2021/08/31 07:02:55;;;;;;;;;29.33;26.67;;;;;;;;6312783;22;45441;-74
2021/08/31 07:05:23;;;;;;;;;36.33;30.67;;;;;;;;6312594;22;45475;-74
2021/08/31 07:07:49;;;;;;;;;33.67;30.67;;;;;;;;6312420;22;45170;-75
2021/08/31 07:10:14;;;;;;;;;35.33;32.33;;;;;;;;6340980;22;45551;-74
2021/08/31 07:12:43;;;;;;;;;30.67;29.33;;;;;;;;6312494;22;45843;-75
2021/08/31 07:15:09;;;;;;;;;28.33;27.33;;;;;;;;6312007;22;46345;-72
2021/08/31 07:17:34;;;;;;;;;33.00;30.67;;;;;;;;6340468;22;45191;-71
2021/08/31 07:19:59;;;;;;;;;27.33;25.33;;;;;;;;6341109;22;45229;-72
2021/08/31 07:22:25;;;;;;;;;32.33;30.00;;;;;;;;6312814;22;45395;-71
2021/08/31 07:24:50;;;;;;;;;33.00;30.00;;;;;;;;6341105;22;45875;-72
2021/08/31 07:27:16;;;;;;;;;34.67;30.67;;;;;;;;6312516;22;45287;-72
2021/08/31 07:29:41;;;;;;;;;31.67;30.00;;;;;;;;6340875;22;45401;-72
2021/08/31 07:32:06;;;;;;;;;32.67;30.33;;;;;;;;6312818;22;45324;-73
2021/08/31 07:34:33;;;;;;;;;36.33;33.67;;;;;;;;6312414;22;48004;-72
2021/08/31 07:37:03;;;;;;;;;42.33;36.67;;;;;;;;6312237;22;45226;-71
2021/08/31 07:39:31;;;;;;;;;38.00;32.00;;;;;;;;6312640;22;45192;-71
2021/08/31 07:41:56;;;;;;;;;35.33;32.00;;;;;;;;6312464;22;45168;-75
2021/08/31 07:44:22;;;;;;;;;38.00;32.00;;;;;;;;6312421;22;46943;-72
2021/08/31 07:46:48;;;;;;;;;35.00;30.67;;;;;;;;6311813;22;45227;-72
2021/08/31 07:49:17;;;;;;;;;33.67;31.00;;;;;;;;6312539;22;45165;-71
2021/08/31 07:51:43;;;;;;;;;37.33;31.67;;;;;;;;6312568;22;45464;-71
2021/08/31 07:54:11;;;;;;;;;31.33;29.00;;;;;;;;6312427;22;47783;-72
2021/08/31 07:56:37;;;;;;;;;35.33;32.00;;;;;;;;6312484;22;45248;-72
2021/08/31 07:59:03;;;;;;;;;42.67;35.00;;;;;;;;6312105;22;45116;-72
2021/08/31 08:01:31;;;;;;;;;46.50;39.00;;;;;;;;6340633;22;45399;-71
2021/08/31 08:04:02;;;;;;;;;33.67;31.00;;;;;;;;6311907;22;45544;-71
2021/08/31 08:06:27;;;;;;;;;30.00;29.00;;;;;;;;6312395;22;45244;-71
2021/08/31 08:08:54;;;;;;;;;52.25;41.75;;;;;;;;6312611;22;45187;-72
2021/08/31 08:11:20;;;;;;;;;32.00;30.67;;;;;;;;6312452;22;45292;-72
2021/08/31 08:13:45;;;;;;;;;38.33;32.67;;;;;;;;6312188;22;45868;-72
2021/08/31 08:16:11;;;;;;;;;28.00;27.00;;;;;;;;6312266;22;45201;-72
2021/08/31 08:18:36;;;;;;;;;29.67;29.00;;;;;;;;6312731;22;45290;-72
2021/08/31 08:21:10;;;;;;;;;72.25;62.50;;;;;;;;6340841;22;45285;-71
2021/08/31 08:23:35;;;;;;;;;65.75;51.25;;;;;;;;6312146;22;47134;-72
2021/08/31 08:26:01;;;;;;;;;74.00;61.25;;;;;;;;6340816;22;45213;-72
2021/08/31 08:28:26;;;;;;;;;32.67;29.00;;;;;;;;6312556;22;45272;-72
2021/08/31 08:30:52;;;;;;;;;31.00;29.00;;;;;;;;6311579;22;45435;-72
2021/08/31 08:33:18;;;;;;;;;28.67;28.67;;;;;;;;6312346;22;45787;-72
2021/08/31 08:35:47;;;;;;;;;30.33;29.00;;;;;;;;6312257;22;45631;-72
2021/08/31 08:38:12;;;;;;;;;60.75;46.50;;;;;;;;6311777;22;45223;-72
2021/08/31 08:40:38;;;;;;;;;43.00;36.67;;;;;;;;6312023;22;45220;-72
2021/08/31 08:43:04;;;;;;;;;52.67;43.00;;;;;;;;6311878;22;46190;-72
2021/08/31 08:45:30;;;;;;;;;32.67;29.67;;;;;;;;6312086;22;45269;-72
2021/08/31 08:47:55;;;;;;;;;54.50;42.50;;;;;;;;6311850;22;45266;-72
2021/08/31 08:50:21;;;;;;;;;78.00;70.00;;;;;;;;6312194;22;45247;-72
2021/08/31 08:52:47;;;;;;;;;59.25;45.75;;;;;;;;6311818;22;45740;-72
2021/08/31 08:55:13;;;;;;;;;66.00;52.25;;;;;;;;6312254;22;45205;-72
2021/08/31 08:57:39;;;;;;;;;29.00;28.33;;;;;;;;6311079;22;45356;-72
2021/08/31 09:00:05;;;;;;;;;47.00;36.33;;;;;;;;6311757;22;45528;-72
2021/08/31 09:02:35;;;;;;;;;72.25;58.00;;;;;;;;6311758;22;45647;-72
2021/08/31 09:05:01;;;;;;;;;59.75;48.25;;;;;;;;6312076;22;45319;-72
2021/08/31 09:07:28;;;;;;;;;43.67;36.00;;;;;;;;6340564;22;45283;-71
2021/08/31 09:10:13;;;;;;;;;39.33;33.33;;;;;;;;6312197;22;46723;-72
2021/08/31 09:12:40;;;;;;;;;44.00;36.67;;;;;;;;6310319;22;46090;-72
2021/08/31 09:15:24;;;;;;;;;43.33;36.00;;;;;;;;6340301;22;45224;-73
2021/08/31 09:18:09;;;;;;;;;34.00;30.33;;;;;;;;6312153;22;45252;-73
2021/08/31 09:20:55;;;;;;;;;27.67;24.67;;;;;;;;6340073;22;45409;-71
2021/08/31 09:23:21;;;;;;;;;33.67;31.33;;;;;;;;6334990;22;46241;-72
2021/08/31 09:25:48;;;;;;;;;81.25;75.25;;;;;;;;6337669;22;45495;-72
2021/08/31 09:28:40;;;;;;;;;72.25;59.75;;;;;;;;6337986;22;45216;-71
2021/08/31 09:31:05;;;;;;;;;44.00;37.67;;;;;;;;6300647;22;45243;-71
2021/08/31 09:33:35;;;;;;;;;71.75;62.25;;;;;;;;6309990;22;46805;-71
2021/08/31 09:36:00;;;;;;;;;80.00;74.00;;;;;;;;6308700;22;45303;-71
2021/08/31 09:38:42;;;;;;;;;44.33;35.33;;;;;;;;6309519;22;45302;-73
2021/08/31 09:41:08;;;;;;;;;50.67;41.33;;;;;;;;6309458;22;45273;-71
2021/08/31 09:43:35;;;;;;;;;51.50;43.00;;;;;;;;6312922;22;45387;-71
2021/08/31 09:46:00;;;;;;;;;59.00;46.75;;;;;;;;6340396;22;45278;-72
2021/08/31 09:48:26;;;;;;;;;35.33;32.00;;;;;;;;6339965;22;45236;-71
2021/08/31 09:50:52;;;;;;;;;64.75;49.50;;;;;;;;6339716;22;45250;-73
2021/08/31 09:53:19;;;;;;;;;67.25;55.00;;;;;;;;6285403;22;46287;-73
2021/08/31 09:55:49;;;;;;;;;39.33;34.00;;;;;;;;6309433;22;45278;-72
2021/08/31 09:58:14;;;;;;;;;54.00;44.75;;;;;;;;6340472;22;45255;-72
2021/08/31 10:00:40;;;;;;;;;61.25;47.75;;;;;;;;6340855;22;45352;-73
2021/08/31 10:03:06;;;;;;;;;64.00;51.00;;;;;;;;6312459;22;47743;-72
2021/08/31 10:05:32;;;;;;;;;29.33;26.33;;;;;;;;6340463;22;45280;-72
2021/08/31 10:07:58;;;;;;;;;37.67;32.67;;;;;;;;6312040;22;45249;-72
2021/08/31 10:10:24;;;;;;;;;30.67;29.00;;;;;;;;6312529;22;46425;-73
2021/08/31 10:12:51;;;;;;;;;51.50;42.50;;;;;;;;6312906;22;46646;-71
2021/08/31 10:15:16;;;;;;;;;34.33;32.00;;;;;;;;6312818;22;45401;-72
2021/08/31 10:17:44;;;;;;;;;36.00;30.33;;;;;;;;6313404;22;45692;-73
2021/08/31 10:20:12;;;;;;;;;27.00;27.00;;;;;;;;6341070;22;45525;-74
2021/08/31 10:22:38;;;;;;;;;30.00;27.67;;;;;;;;6340716;22;45383;-73
2021/08/31 10:25:03;;;;;;;;;24.67;23.33;;;;;;;;6312989;22;45283;-73
2021/08/31 10:27:39;;;;;;;;;26.67;25.67;;;;;;;;6341247;22;45156;-73
2021/08/31 10:30:16;;;;;;;;;34.33;30.00;;;;;;;;6338492;22;45555;-73
2021/08/31 10:32:43;;;;;;;;;20.67;20.67;;;;;;;;6340531;22;45198;-72
2021/08/31 10:35:08;;;;;;;;;56.50;45.25;;;;;;;;6309634;22;45352;-71
2021/08/31 10:37:43;;;;;;;;;25.33;23.33;;;;;;;;6341031;22;45121;-74
2021/08/31 10:40:09;;;;;;;;;39.00;32.00;;;;;;;;6341032;22;45203;-72
2021/08/31 10:42:34;;;;;;;;;55.75;46.00;;;;;;;;6340704;22;45229;-72
2021/08/31 10:45:20;;;;;;;;;77.00;67.00;;;;;;;;6312599;22;45343;-74
2021/08/31 10:47:45;;;;;;;;;54.33;43.33;;;;;;;;6285646;22;45349;-74
2021/08/31 10:50:17;;;;;;;;;69.25;56.50;;;;;;;;6312260;22;45497;-73
2021/08/31 10:52:49;;;;;;;;;47.00;40.00;;;;;;;;6312031;22;45583;-74
2021/08/31 10:55:23;;;;;;;;;57.50;45.75;;;;;;;;6340446;22;45274;-74
2021/08/31 10:57:48;;;;;;;;;27.67;23.00;;;;;;;;6339811;22;45283;-73
2021/08/31 11:00:16;;;;;;;;;22.00;22.00;;;;;;;;6339977;22;45244;-73
2021/08/31 11:02:51;;;;;;;;;55.50;45.25;;;;;;;;6312495;22;46606;-74
2021/08/31 11:05:24;;;;;;;;;34.33;31.33;;;;;;;;6339431;22;45358;-74
2021/08/31 11:07:50;;;;;;;;;28.00;27.67;;;;;;;;6312559;22;45291;-76
2021/08/31 11:10:37;;;;;;;;;23.00;22.67;;;;;;;;6312702;22;45893;-76
2021/08/31 11:13:09;;;;;;;;;25.00;24.67;;;;;;;;6312397;22;47247;-76
2021/08/31 11:15:35;;;;;;;;;20.33;20.00;;;;;;;;6312128;22;45401;-76
2021/08/31 11:18:00;;;;;;;;;64.50;50.00;;;;;;;;6312746;22;45262;-75
2021/08/31 11:20:32;;;;;;;;;32.33;28.33;;;;;;;;6312801;22;45880;-77
2021/08/31 11:23:03;;;;;;;;;53.33;43.33;;;;;;;;6341024;22;46193;-75
2021/08/31 11:25:55;;;;;;;;;36.33;32.00;;;;;;;;6340918;22;45458;-75
2021/08/31 11:28:33;;;;;;;;;53.00;39.67;;;;;;;;6292375;22;45342;-73
2021/08/31 11:31:13;;;;;;;;;33.33;30.33;;;;;;;;6310273;22;45195;-73
2021/08/31 11:33:50;;;;;;;;;25.00;23.67;;;;;;;;6337725;22;45712;-74
2021/08/31 11:36:17;;;;;;;;;21.33;20.00;;;;;;;;6312581;22;45123;-72
2021/08/31 11:38:44;;;;;;;;;24.00;23.00;;;;;;;;6312466;22;45156;-72
2021/08/31 11:41:21;;;;;;;;;37.33;33.00;;;;;;;;6340924;22;45495;-73
2021/08/31 11:43:54;;;;;;;;;42.00;34.33;;;;;;;;6339448;22;46006;-73
2021/08/31 11:46:29;;;;;;;;;52.00;43.00;;;;;;;;6340260;22;45172;-73
2021/08/31 11:49:13;;;;;;;;;30.67;27.33;;;;;;;;6311923;22;45456;-74
2021/08/31 11:51:39;;;;;;;;;21.00;21.00;;;;;;;;6339090;22;45256;-73
2021/08/31 11:54:06;;;;;;;;;39.67;34.67;;;;;;;;6312102;22;46142;-75
2021/08/31 11:56:34;;;;;;;;;25.00;23.00;;;;;;;;6312477;22;45367;-76
2021/08/31 11:59:00;;;;;;;;;20.00;20.00;;;;;;;;6312147;22;45258;-75
2021/08/31 12:01:29;;;;;;;;;22.33;20.00;;;;;;;;6311806;22;45515;-75
2021/08/31 12:03:54;;;;;;;;;44.33;36.33;;;;;;;;6311538;22;46362;-75
2021/08/31 12:06:20;;;;;;;;;32.67;30.67;;;;;;;;6312192;22;45227;-72
2021/08/31 12:08:46;;;;;;;;;168.75;158.25;;;;;;;;6340826;22;45267;-73
2021/08/31 12:11:14;;;;;;;;;63.25;50.25;;;;;;;;6312118;22;45448;-74
2021/08/31 12:13:42;;;;;;;;;43.67;35.33;;;;;;;;6312240;22;47899;-72
2021/08/31 12:16:11;;;;;;;;;41.67;35.00;;;;;;;;6340179;22;45237;-72
2021/08/31 12:18:36;;;;;;;;;19.00;18.00;;;;;;;;6311869;22;45334;-72
2021/08/31 12:21:17;;;;;;;;;24.00;22.00;;;;;;;;6311588;22;45489;-72
2021/08/31 12:23:43;;;;;;;;;54.67;44.67;;;;;;;;6312442;22;48313;-74
2021/08/31 12:26:08;;;;;;;;;28.00;28.00;;;;;;;;6312308;22;45211;-72
2021/08/31 12:28:53;;;;;;;;;19.33;19.33;;;;;;;;6312360;22;45173;-73
2021/08/31 12:31:19;;;;;;;;;22.00;20.33;;;;;;;;6304487;22;47127;-75
2021/08/31 12:33:46;;;;;;;;;20.00;18.00;;;;;;;;6305403;22;45554;-75
2021/08/31 12:36:12;;;;;;;;;19.00;19.00;;;;;;;;6305577;22;45377;-75
2021/08/31 12:38:43;;;;;;;;;22.00;21.00;;;;;;;;6306276;22;45418;-75
2021/08/31 12:41:24;;;;;;;;;17.67;17.67;;;;;;;;6306656;22;45405;-76
2021/08/31 12:43:50;;;;;;;;;64.25;50.75;;;;;;;;6307787;22;46342;-75
2021/08/31 12:46:23;;;;;;;;;24.67;23.00;;;;;;;;6306386;22;45221;-75
2021/08/31 12:48:52;;;;;;;;;24.67;24.67;;;;;;;;6304397;22;45423;-75
2021/08/31 12:51:31;;;;;;;;;60.33;46.00;;;;;;;;6306381;22;45381;-73
2021/08/31 12:54:00;;;;;;;;;21.00;20.67;;;;;;;;6306249;22;46989;-73
2021/08/31 12:56:28;;;;;;;;;25.67;25.33;;;;;;;;6308364;22;45258;-73
2021/08/31 12:59:03;;;;;;;;;17.33;17.33;;;;;;;;6306695;22;45283;-74
2021/08/31 13:01:33;;;;;;;;;17.33;17.33;;;;;;;;6305440;22;45436;-73
2021/08/31 13:04:12;;;;;;;;;21.67;21.67;;;;;;;;6307431;22;45381;-74
2021/08/31 13:06:43;;;;;;;;;18.00;18.00;;;;;;;;6306320;22;45162;-75
2021/08/31 13:09:13;;;;;;;;;19.67;18.33;;;;;;;;6306268;22;45291;-75
2021/08/31 13:11:47;;;;;;;;;17.67;15.00;;;;;;;;6307742;22;45353;-74
2021/08/31 13:14:16;;;;;;;;;54.67;44.00;;;;;;;;6306031;22;45886;-74
2021/08/31 13:16:46;;;;;;;;;29.33;28.67;;;;;;;;6306488;22;45337;-78
2021/08/31 13:19:11;;;;;;;;;22.67;22.67;;;;;;;;6308093;22;45247;-74
2021/08/31 13:21:37;;;;;;;;;24.00;24.00;;;;;;;;6310031;22;45117;-73
2021/08/31 13:24:03;;;;;;;;;19.67;19.67;;;;;;;;6309894;22;45979;-73
2021/08/31 13:26:29;;;;;;;;;20.00;18.00;;;;;;;;6308336;22;45220;-72
2021/08/31 13:28:55;;;;;;;;;18.33;18.33;;;;;;;;6310542;22;45219;-72
2021/08/31 13:31:20;;;;;;;;;55.67;45.00;;;;;;;;6337427;22;45274;-72
2021/08/31 13:33:47;;;;;;;;;26.33;26.00;;;;;;;;6340621;22;46161;-73
2021/08/31 13:36:12;;;;;;;;;15.67;15.33;;;;;;;;6341007;22;45242;-73
2021/08/31 13:38:37;;;;;;;;;14.33;13.67;;;;;;;;6341816;22;45425;-73
2021/08/31 13:41:02;;;;;;;;;13.33;13.33;;;;;;;;6313160;22;45230;-71
2021/08/31 13:43:27;;;;;;;;;13.00;11.33;;;;;;;;6341055;22;46452;-72
2021/08/31 13:45:56;;;;;;;;;14.00;14.00;;;;;;;;6341333;22;45262;-72
2021/08/31 13:48:21;;;;;;;;;15.00;15.00;;;;;;;;6342155;22;45089;-74
2021/08/31 13:50:46;;;;;;;;;16.33;15.33;;;;;;;;6341829;22;45187;-72
2021/08/31 13:53:12;;;;;;;;;16.33;15.67;;;;;;;;6337763;22;46136;-71
2021/08/31 13:55:37;;;;;;;;;16.33;16.33;;;;;;;;6340383;22;45663;-72
2021/08/31 13:58:02;;;;;;;;;48.00;38.00;;;;;;;;6340844;22;45254;-71
2021/08/31 14:00:28;;;;;;;;;35.33;28.67;;;;;;;;6340630;22;45433;-72
2021/08/31 14:02:53;;;;;;;;;37.67;32.67;;;;;;;;6312910;22;46871;-71
2021/08/31 14:05:19;;;;;;;;;15.33;14.00;;;;;;;;6341570;22;45199;-72
2021/08/31 14:07:44;;;;;;;;;16.00;15.33;;;;;;;;6341723;22;45343;-71
2021/08/31 14:10:09;;;;;;;;;35.33;29.67;;;;;;;;6341588;22;45303;-72
2021/08/31 14:12:34;;;;;;;;;12.67;12.67;;;;;;;;6308220;22;47109;-72
2021/08/31 14:15:00;;;;;;;;;14.67;14.33;;;;;;;;6339958;22;45345;-71
2021/08/31 14:17:26;;;;;;;;;10.33;10.33;;;;;;;;6341276;22;45243;-72